Time;durP1;ratioP1;P1;durP2;ratioP2;P2;SDS_P1;SDS_P2;PMS_P1;PMS_P2;Temp;Humidity;BMP_temperature;BMP_pressure;BME280_temperature;BME280_humidity;BME280_pressure;Samples;Min_cycle;Max_cycle;Signal;HPM_P1;HPM_P2
2021/08/14 00:01:40;;;;;;;8.20;3.70;;;;;;;22.38;54.24;100757.53;5110039;28;20103;-23
2021/08/14 00:04:05;;;;;;;6.00;3.42;;;;;;;22.53;54.32;100761.25;5109936;28;20030;-23
2021/08/14 00:06:31;;;;;;;7.72;3.72;;;;;;;22.39;54.61;100752.91;5110145;28;20031;-22
2021/08/14 00:08:56;;;;;;;6.13;3.53;;;;;;;22.19;55.02;100745.66;5110009;28;20036;-23
2021/08/14 00:11:22;;;;;;;12.02;4.25;;;;;;;22.26;55.00;100752.44;5091799;28;20035;-23
2021/08/14 00:13:47;;;;;;;7.57;3.92;;;;;;;22.62;53.82;100765.81;5110088;28;20035;-22
2021/08/14 00:16:12;;;;;;;7.28;3.50;;;;;;;22.61;53.78;100760.66;5109909;28;20032;-22
2021/08/14 00:18:38;;;;;;;6.47;3.67;;;;;;;22.49;54.25;100769.16;5109755;28;20823;-22
2021/08/14 00:21:04;;;;;;;7.20;4.10;;;;;;;22.31;54.75;100773.31;5109727;28;20088;-23
2021/08/14 00:23:29;;;;;;;7.82;3.97;;;;;;;22.18;54.93;100763.84;5109830;28;20114;-22
2021/08/14 00:25:57;;;;;;;6.60;3.83;;;;;;;22.37;54.20;100760.53;5109997;28;20027;-23
2021/08/14 00:28:22;;;;;;;6.82;3.65;;;;;;;22.34;54.47;100780.13;5109556;28;20028;-23
2021/08/14 00:30:48;;;;;;;8.32;3.67;;;;;;;22.33;54.90;100782.03;5109933;28;20035;-23
2021/08/14 00:33:13;;;;;;;8.27;3.67;;;;;;;22.27;54.39;100775.81;5108832;28;20077;-23
2021/08/14 00:35:39;;;;;;;7.75;3.72;;;;;;;22.25;54.75;100778.00;5109301;28;20028;-23
2021/08/14 00:38:04;;;;;;;7.53;3.90;;;;;;;22.18;54.81;100779.34;5109305;28;20054;-22
2021/08/14 00:40:30;;;;;;;8.07;3.95;;;;;;;22.22;54.77;100783.94;5109539;28;20024;-21
2021/08/14 00:42:55;;;;;;;7.03;3.70;;;;;;;22.18;55.10;100776.63;5109343;28;20036;-22
2021/08/14 00:45:21;;;;;;;6.47;3.42;;;;;;;22.25;54.72;100788.03;5109414;28;20035;-22
2021/08/14 00:47:46;;;;;;;6.85;3.40;;;;;;;22.41;53.90;100777.91;5109123;28;20031;-22
2021/08/14 00:50:12;;;;;;;5.45;3.33;;;;;;;22.40;53.78;100784.44;5109159;28;20027;-22
2021/08/14 00:52:37;;;;;;;6.57;3.88;;;;;;;22.22;55.04;100785.84;5090885;28;20491;-22
2021/08/14 00:55:03;;;;;;;6.93;3.47;;;;;;;22.00;55.62;100767.22;5109275;28;20546;-22
2021/08/14 00:57:29;;;;;;;7.43;3.72;;;;;;;21.97;55.95;100787.59;5108957;28;20051;-22
2021/08/14 00:59:54;;;;;;;6.07;3.92;;;;;;;21.94;55.72;100768.31;5109039;28;20405;-22
2021/08/14 01:02:20;;;;;;;11.60;4.30;;;;;;;22.17;55.17;100783.16;5108930;28;20036;-22
2021/08/14 01:04:49;;;;;;;8.73;3.85;;;;;;;22.11;55.29;100781.53;5108912;28;20106;-22
2021/08/14 01:07:16;;;;;;;7.32;3.75;;;;;;;22.29;54.73;100778.22;5108826;28;20034;-22
2021/08/14 01:09:41;;;;;;;7.28;4.40;;;;;;;22.29;54.52;100778.22;5108815;28;20023;-22
2021/08/14 01:12:07;;;;;;;5.30;3.17;;;;;;;22.16;55.22;100787.78;5108737;28;20098;-22
2021/08/14 01:14:32;;;;;;;6.85;4.10;;;;;;;22.06;55.47;100785.91;5090632;28;20458;-22
2021/08/14 01:16:59;;;;;;;6.78;3.75;;;;;;;22.05;55.54;100786.22;5108669;28;20510;-22
2021/08/14 01:19:24;;;;;;;7.82;4.05;;;;;;;22.09;55.34;100784.56;5090578;28;20034;-22
2021/08/14 01:21:50;;;;;;;8.75;4.30;;;;;;;22.04;55.90;100784.56;5108559;28;20027;-22
2021/08/14 01:24:16;;;;;;;8.00;4.55;;;;;;;22.01;55.77;100774.28;5108599;28;20050;-22
2021/08/14 01:26:42;;;;;;;6.93;4.00;;;;;;;21.91;55.87;100766.97;5108536;28;20471;-22
2021/08/14 01:29:07;;;;;;;9.32;3.95;;;;;;;22.05;55.87;100780.78;5108378;28;20035;-22
2021/08/14 01:31:33;;;;;;;5.90;3.63;;;;;;;22.01;55.80;100775.09;5108417;28;20031;-23
2021/08/14 01:33:58;;;;;;;25.42;4.97;;;;;;;21.85;56.45;100781.66;5108115;28;20092;-22
2021/08/14 01:36:24;;;;;;;7.93;3.97;;;;;;;21.86;56.20;100777.84;5108326;28;20043;-22
2021/08/14 01:38:53;;;;;;;6.03;3.53;;;;;;;21.77;56.47;100785.75;5108393;28;20024;-22
2021/08/14 01:41:20;;;;;;;6.50;4.20;;;;;;;21.40;57.77;100783.38;5108186;28;20411;-22
2021/08/14 01:44:05;;;;;;;7.43;4.10;;;;;;;21.19;58.65;100780.69;5108214;28;20027;-22
2021/08/14 01:46:37;;;;;;;9.30;4.40;;;;;;;21.20;58.41;100787.72;5108167;28;20028;-22
2021/08/14 01:49:02;;;;;;;8.10;4.20;;;;;;;21.08;58.96;100784.47;5107918;28;20118;-22
2021/08/14 01:51:28;;;;;;;7.15;4.10;;;;;;;21.00;59.02;100788.56;5107980;28;20110;-22
2021/08/14 01:53:56;;;;;;;6.57;3.70;;;;;;;21.04;58.82;100783.38;5108062;28;20110;-22
2021/08/14 01:56:22;;;;;;;10.25;4.10;;;;;;;20.86;59.07;100763.88;5107533;28;20102;-22
2021/08/14 01:58:47;;;;;;;8.10;3.92;;;;;;;20.97;58.95;100782.84;5107771;28;20063;-22
2021/08/14 02:01:13;;;;;;;8.40;4.13;;;;;;;21.08;58.42;100773.63;5108375;28;20110;-22
2021/08/14 02:03:39;;;;;;;8.45;4.20;;;;;;;21.03;58.60;100771.72;5108003;28;20051;-22
2021/08/14 02:06:06;;;;;;;6.90;4.15;;;;;;;20.84;59.03;100774.19;5107531;28;20023;-22
2021/08/14 02:08:32;;;;;;;7.63;4.23;;;;;;;20.81;59.45;100774.69;5107698;28;20138;-22
2021/08/14 02:10:57;;;;;;;6.78;4.05;;;;;;;20.94;59.01;100767.91;5107727;28;20281;-23
2021/08/14 02:13:23;;;;;;;20.35;4.63;;;;;;;20.42;59.41;100720.97;5107660;28;20023;-22
2021/08/14 02:15:48;;;;;;;11.32;4.43;;;;;;;20.85;58.78;100753.28;5107845;28;20027;-22
2021/08/14 02:18:14;;;;;;;8.95;4.32;;;;;;;20.80;59.36;100764.97;5107767;28;20407;-22
2021/08/14 02:20:39;;;;;;;13.38;4.53;;;;;;;20.95;58.71;100760.63;5107370;28;20027;-22
2021/08/14 02:23:05;;;;;;;9.00;4.45;;;;;;;21.44;57.25;100768.19;5107691;28;20028;-22
2021/08/14 02:25:30;;;;;;;7.53;4.57;;;;;;;21.55;56.81;100763.56;5107673;28;20031;-23
2021/08/14 02:27:56;;;;;;;6.60;4.30;;;;;;;21.56;56.91;100757.84;5107458;28;20028;-22
2021/08/14 02:30:21;;;;;;;9.80;4.57;;;;;;;21.58;56.99;100766.53;5107246;28;20065;-23
2021/08/14 02:32:47;;;;;;;6.35;4.22;;;;;;;22.04;55.63;100766.38;5107673;28;20031;-23
2021/08/14 02:35:13;;;;;;;7.82;4.57;;;;;;;21.62;56.24;100739.66;5107345;28;20035;-22
2021/08/14 02:37:39;;;;;;;9.20;5.68;;;;;;;21.11;57.98;100745.97;5107714;28;20024;-22
2021/08/14 02:40:06;;;;;;;7.15;4.75;;;;;;;21.25;57.30;100757.88;5107238;28;20036;-22
2021/08/14 02:42:32;;;;;;;11.03;5.60;;;;;;;21.53;56.29;100752.16;5107405;28;20023;-22
2021/08/14 02:44:58;;;;;;;8.38;4.40;;;;;;;21.74;56.07;100766.47;5107569;28;20372;-22
2021/08/14 02:47:23;;;;;;;12.77;4.95;;;;;;;21.44;56.87;100760.06;5107341;28;20023;-22
2021/08/14 02:49:49;;;;;;;7.97;5.05;;;;;;;21.36;57.46;100757.88;5107368;28;20023;-22
2021/08/14 02:52:14;;;;;;;7.40;4.65;;;;;;;21.62;56.43;100762.19;5107001;28;20376;-22
2021/08/14 02:54:40;;;;;;;8.45;4.57;;;;;;;21.75;55.91;100765.41;5107492;28;20023;-22
2021/08/14 02:57:05;;;;;;;11.65;5.72;;;;;;;21.73;55.87;100770.28;5110548;28;20804;-23
2021/08/14 02:59:31;;;;;;;13.38;6.30;;;;;;;21.91;54.75;100775.13;5111214;28;20058;-23
2021/08/14 03:01:56;;;;;;;11.00;6.13;;;;;;;21.89;55.12;100777.31;5111329;28;20039;-22
2021/08/14 03:04:21;;;;;;;13.27;6.60;;;;;;;21.38;57.12;100771.97;5111066;28;20036;-22
2021/08/14 03:06:47;;;;;;;10.57;5.60;;;;;;;21.89;55.44;100771.88;5111171;28;20042;-22
2021/08/14 03:09:12;;;;;;;13.18;6.60;;;;;;;22.17;54.80;100777.72;5111110;28;20050;-22
2021/08/14 03:11:38;;;;;;;10.52;5.50;;;;;;;22.14;54.85;100784.53;5111076;28;20039;-22
2021/08/14 03:14:03;;;;;;;10.38;5.72;;;;;;;22.01;54.64;100780.50;5110880;28;20491;-22
2021/08/14 03:16:29;;;;;;;11.02;5.30;;;;;;;21.56;56.11;100773.34;5111035;28;20167;-22
2021/08/14 03:18:54;;;;;;;10.57;5.45;;;;;;;21.74;56.39;100782.75;5111086;28;20555;-22
2021/08/14 03:21:20;;;;;;;12.20;6.07;;;;;;;21.88;55.34;100786.53;5111152;28;20027;-22
2021/08/14 03:23:45;;;;;;;13.18;5.60;;;;;;;21.80;55.28;100782.50;5111039;28;20036;-22
2021/08/14 03:26:11;;;;;;;8.40;5.60;;;;;;;22.20;53.22;100761.69;5110531;28;20020;-22
2021/08/14 03:28:36;;;;;;;13.55;5.65;;;;;;;22.37;53.16;100780.38;5111021;28;20847;-23
2021/08/14 03:31:02;;;;;;;9.27;5.47;;;;;;;21.97;54.68;100784.06;5110788;28;20513;-22
2021/08/14 03:33:27;;;;;;;9.98;5.47;;;;;;;21.79;55.24;100782.75;5110734;28;20039;-22
2021/08/14 03:35:53;;;;;;;11.73;5.55;;;;;;;22.06;54.79;100771.53;5110749;28;20026;-22
2021/08/14 03:38:18;;;;;;;14.20;5.75;;;;;;;22.06;54.19;100777.75;5110426;28;20032;-22
2021/08/14 03:40:44;;;;;;;12.70;5.60;;;;;;;22.14;54.09;100776.38;5091706;28;20036;-22
2021/08/14 03:43:09;;;;;;;11.35;6.15;;;;;;;22.01;54.77;100785.94;5110504;28;20039;-22
2021/08/14 03:45:35;;;;;;;10.63;5.80;;;;;;;21.89;55.23;100790.88;5110366;28;20034;-22
2021/08/14 03:48:00;;;;;;;17.15;8.15;;;;;;;22.10;54.59;100786.19;5110477;28;20024;-22
2021/08/14 03:50:26;;;;;;;19.80;11.40;;;;;;;22.01;54.66;100787.84;5110080;28;20453;-22
2021/08/14 03:52:51;;;;;;;24.60;12.70;;;;;;;22.10;54.35;100788.09;5110609;28;20035;-22
2021/08/14 03:55:17;;;;;;;31.98;17.75;;;;;;;22.21;53.90;100790.47;5110381;28;20032;-22
2021/08/14 03:57:42;;;;;;;31.92;12.35;;;;;;;21.13;58.03;100789.91;5109970;28;20047;-22
2021/08/14 04:00:08;;;;;;;22.67;11.73;;;;;;;21.06;58.15;100802.91;5110085;28;20479;-22
2021/08/14 04:02:33;;;;;;;24.90;12.07;;;;;;;20.76;59.23;100799.09;5110214;28;20062;-22
2021/08/14 04:05:00;;;;;;;24.08;11.88;;;;;;;20.86;59.51;100803.69;5110228;28;20027;-22
2021/08/14 04:07:25;;;;;;;36.60;17.85;;;;;;;21.78;56.42;100797.41;5108789;28;20031;-22
2021/08/14 04:09:51;;;;;;;56.40;28.88;;;;;;;21.47;56.94;100802.91;5109867;28;20490;-22
2021/08/14 04:12:16;;;;;;;51.15;25.58;;;;;;;21.63;56.92;100801.78;5110074;28;20035;-22
2021/08/14 04:14:41;;;;;;;16.58;10.23;;;;;;;21.39;58.13;100811.56;5110126;28;20496;-22
2021/08/14 04:17:07;;;;;;;11.82;6.85;;;;;;;21.37;58.14;100808.31;5109661;28;20031;-22
2021/08/14 04:19:32;;;;;;;16.60;8.43;;;;;;;21.39;58.06;100806.16;5109821;28;20399;-22
2021/08/14 04:22:00;;;;;;;14.30;8.30;;;;;;;21.46;57.88;100801.31;5109586;28;20032;-22
2021/08/14 04:24:25;;;;;;;10.50;6.35;;;;;;;21.27;58.87;100814.59;5109594;28;20483;-22
2021/08/14 04:26:51;;;;;;;13.93;6.13;;;;;;;21.21;59.24;100807.53;5109773;28;20044;-22
2021/08/14 04:29:16;;;;;;;9.75;5.95;;;;;;;21.33;58.99;100815.38;5091314;28;20032;-22
2021/08/14 04:31:42;;;;;;;9.30;6.10;;;;;;;21.64;58.11;100814.28;5109780;28;20035;-22
2021/08/14 04:34:07;;;;;;;8.57;5.60;;;;;;;21.90;57.10;100810.69;5109405;28;20630;-22
2021/08/14 04:36:33;;;;;;;10.50;5.80;;;;;;;21.78;57.79;100819.97;5109838;28;20039;-22
2021/08/14 04:38:58;;;;;;;11.82;6.15;;;;;;;21.98;57.81;100819.06;5109774;28;20403;-22
2021/08/14 04:41:23;;;;;;;10.63;6.47;;;;;;;22.21;57.19;100827.69;5109383;28;20035;-22
2021/08/14 04:43:49;;;;;;;24.90;7.28;;;;;;;22.28;56.97;100814.66;5109521;28;20035;-22
2021/08/14 04:46:14;;;;;;;11.90;6.20;;;;;;;21.72;57.89;100814.81;5109170;28;20116;-22
2021/08/14 04:48:40;;;;;;;12.40;6.28;;;;;;;21.58;58.55;100823.53;5109173;28;20031;-22
2021/08/14 04:51:05;;;;;;;13.07;6.47;;;;;;;21.89;58.01;100818.03;5109540;28;20035;-22
2021/08/14 04:53:31;;;;;;;10.85;5.80;;;;;;;21.75;58.28;100819.69;5109236;28;20034;-22
2021/08/14 04:55:56;;;;;;;13.48;6.50;;;;;;;21.86;58.30;100815.84;5109131;28;20038;-23
2021/08/14 04:58:22;;;;;;;11.07;5.75;;;;;;;22.13;56.95;100809.25;5108595;28;20128;-22
2021/08/14 05:00:47;;;;;;;8.23;5.65;;;;;;;22.04;57.10;100820.69;5108977;28;20043;-22
2021/08/14 05:03:13;;;;;;;10.75;6.78;;;;;;;21.97;57.29;100816.66;5109178;28;20038;-22
2021/08/14 05:05:39;;;;;;;11.20;5.55;;;;;;;21.83;58.15;100800.13;5090755;28;20878;-22
2021/08/14 05:08:05;;;;;;;8.60;6.05;;;;;;;21.73;58.91;100816.44;5108741;28;20050;-22
2021/08/14 05:10:30;;;;;;;10.05;6.32;;;;;;;21.47;60.10;100819.19;5108725;28;20455;-22
2021/08/14 05:12:56;;;;;;;10.95;6.68;;;;;;;21.38;60.83;100820.81;5108803;28;20042;-27
2021/08/14 05:15:21;;;;;;;9.77;6.30;;;;;;;21.42;60.38;100813.75;5108985;28;20740;-22
2021/08/14 05:17:46;;;;;;;13.68;9.50;;;;;;;21.78;59.33;100811.00;5108548;28;20529;-22
2021/08/14 05:20:12;;;;;;;9.98;6.32;;;;;;;22.02;57.66;100816.63;5108141;28;20031;-22
2021/08/14 05:22:37;;;;;;;10.15;5.53;;;;;;;21.91;57.60;100809.63;5108504;28;20043;-22
2021/08/14 05:25:03;;;;;;;9.57;5.82;;;;;;;22.04;57.48;100823.41;5108414;28;20027;-22
2021/08/14 05:27:29;;;;;;;7.50;5.30;;;;;;;22.00;56.99;100816.91;5108598;28;20028;-22
2021/08/14 05:29:54;;;;;;;9.75;5.10;;;;;;;22.06;56.66;100821.22;5090095;28;20402;-22
2021/08/14 05:32:20;;;;;;;9.15;5.20;;;;;;;22.14;56.11;100813.59;5108220;28;20032;-23
2021/08/14 05:34:45;;;;;;;8.65;5.07;;;;;;;22.19;56.08;100810.84;5108489;28;20108;-22
2021/08/14 05:37:11;;;;;;;8.75;5.07;;;;;;;22.28;55.84;100811.94;5108330;28;20038;-22
2021/08/14 05:39:36;;;;;;;10.75;5.22;;;;;;;22.55;55.43;100810.72;5108447;28;20036;-22
2021/08/14 05:42:02;;;;;;;9.13;5.05;;;;;;;22.60;54.51;100813.41;5108026;28;20032;-22
2021/08/14 05:44:28;;;;;;;7.75;4.60;;;;;;;22.49;54.94;100809.13;5108210;28;20031;-22
2021/08/14 05:46:53;;;;;;;7.20;4.47;;;;;;;22.70;54.52;100810.63;5108181;28;20039;-22
2021/08/14 05:49:19;;;;;;;7.78;5.05;;;;;;;22.61;54.35;100817.75;5108384;28;20020;-22
2021/08/14 05:51:44;;;;;;;9.82;5.20;;;;;;;22.84;54.31;100816.22;5108451;28;20743;-22
2021/08/14 05:54:10;;;;;;;11.23;5.20;;;;;;;22.75;54.18;100810.59;5107713;28;20036;-22
2021/08/14 05:56:35;;;;;;;7.63;5.63;;;;;;;22.64;55.18;100812.56;5107907;28;20035;-22
2021/08/14 05:59:02;;;;;;;8.73;5.60;;;;;;;22.83;55.10;100812.69;5107764;28;20104;-22
2021/08/14 06:01:28;;;;;;;9.63;5.50;;;;;;;22.94;54.27;100797.13;5107841;28;20043;-22
2021/08/14 06:03:53;;;;;;;8.35;5.68;;;;;;;23.13;54.09;100802.72;5107806;28;20023;-22
2021/08/14 06:06:19;;;;;;;9.82;5.60;;;;;;;23.13;54.28;100799.16;5107725;28;20031;-22
2021/08/14 06:08:44;;;;;;;9.25;5.63;;;;;;;23.43;53.43;100808.97;5107964;28;20027;-22
2021/08/14 06:11:10;;;;;;;11.10;5.78;;;;;;;23.65;52.62;100795.69;5107749;28;20063;-22
2021/08/14 06:13:35;;;;;;;8.80;5.38;;;;;;;23.82;53.37;100800.72;5107744;28;20035;-22
2021/08/14 06:16:03;;;;;;;8.43;5.63;;;;;;;23.96;52.02;100803.53;5107671;28;20454;-22
2021/08/14 06:18:29;;;;;;;9.38;5.32;;;;;;;23.81;52.54;100792.81;5108036;28;20031;-22
2021/08/14 06:20:54;;;;;;;11.15;5.43;;;;;;;23.90;51.94;100791.06;5107931;28;20903;-22
2021/08/14 06:23:20;;;;;;;9.02;5.10;;;;;;;24.01;51.71;100792.59;5107602;28;20425;-22
2021/08/14 06:25:45;;;;;;;7.63;5.10;;;;;;;24.09;51.38;100788.41;5107560;28;20042;-22
2021/08/14 06:28:11;;;;;;;7.50;4.60;;;;;;;24.24;51.03;100790.91;5107451;28;20020;-22
2021/08/14 06:30:36;;;;;;;8.90;5.30;;;;;;;24.01;51.94;100787.13;5106927;28;20086;-22
2021/08/14 06:33:03;;;;;;;9.90;5.03;;;;;;;24.25;50.96;100773.47;5107579;28;20031;-22
2021/08/14 06:35:28;;;;;;;7.63;4.88;;;;;;;24.54;50.05;100782.63;5107459;28;20039;-22
2021/08/14 06:37:54;;;;;;;7.30;4.70;;;;;;;24.69;50.43;100790.59;5107471;28;20019;-22
2021/08/14 06:40:19;;;;;;;9.13;5.07;;;;;;;24.94;49.72;100764.03;5107339;28;20063;-22
2021/08/14 06:42:45;;;;;;;7.82;5.15;;;;;;;25.18;48.97;100781.06;5107384;28;20411;-22
2021/08/14 06:45:10;;;;;;;10.90;5.05;;;;;;;24.91;49.37;100772.78;5107456;28;20042;-22
2021/08/14 06:47:37;;;;;;;8.55;5.18;;;;;;;25.03;49.20;100789.53;5107295;28;20028;-22
2021/08/14 06:50:04;;;;;;;7.83;4.53;;;;;;;25.26;48.60;100783.13;5107241;28;20042;-22
2021/08/14 06:52:29;;;;;;;8.15;5.70;;;;;;;25.51;48.43;100778.31;5107205;28;20098;-22
2021/08/14 06:54:55;;;;;;;10.25;5.72;;;;;;;25.41;48.03;100778.50;5107286;28;20032;-22
2021/08/14 06:57:20;;;;;;;9.90;5.50;;;;;;;25.68;47.57;100780.44;5106873;28;20034;-22
2021/08/14 06:59:46;;;;;;;7.13;4.90;;;;;;;25.63;47.30;100783.28;5107446;28;20085;-22
2021/08/14 07:02:11;;;;;;;10.57;5.55;;;;;;;25.67;47.52;100776.91;5107123;28;20144;-22
2021/08/14 07:04:36;;;;;;;7.22;5.20;;;;;;;25.73;46.94;100763.97;5107387;28;20031;-22
2021/08/14 07:07:02;;;;;;;10.48;5.28;;;;;;;25.99;47.48;100780.69;5107260;28;20499;-22
2021/08/14 07:09:28;;;;;;;7.88;5.22;;;;;;;26.12;47.09;100783.72;5107467;28;20031;-22
2021/08/14 07:11:53;;;;;;;10.05;5.40;;;;;;;26.10;46.80;100777.75;5107312;28;20070;-22
2021/08/14 07:14:19;;;;;;;10.57;5.55;;;;;;;25.82;47.13;100772.25;5106884;28;20508;-22
2021/08/14 07:16:44;;;;;;;11.27;5.60;;;;;;;25.59;47.39;100779.56;5107380;28;20031;-22
2021/08/14 07:19:09;;;;;;;11.02;5.72;;;;;;;25.71;47.22;100773.59;5106988;28;20023;-22
2021/08/14 07:21:35;;;;;;;8.00;5.40;;;;;;;25.98;46.40;100776.31;5107255;28;20028;-22
2021/08/14 07:24:01;;;;;;;11.57;5.75;;;;;;;26.21;45.94;100782.66;5106936;28;20112;-22
2021/08/14 07:26:26;;;;;;;10.02;5.60;;;;;;;26.12;45.92;100775.50;5107339;28;20502;-22
2021/08/14 07:28:51;;;;;;;8.43;5.22;;;;;;;26.23;45.17;100785.09;5106896;28;20027;-22
2021/08/14 07:31:17;;;;;;;9.57;5.57;;;;;;;26.19;44.70;100773.16;5107250;28;20506;-22
2021/08/14 07:33:42;;;;;;;9.40;5.68;;;;;;;26.99;44.04;100781.72;5107271;28;20031;-22
2021/08/14 07:36:08;;;;;;;9.32;5.57;;;;;;;27.05;43.75;100780.47;5107015;28;20035;-22
2021/08/14 07:38:34;;;;;;;10.88;5.78;;;;;;;26.72;43.76;100777.19;5106842;28;20043;-22
2021/08/14 07:40:59;;;;;;;10.88;5.32;;;;;;;26.82;44.02;100775.00;5106842;28;20023;-22
2021/08/14 07:43:25;;;;;;;7.90;5.53;;;;;;;27.04;42.90;100776.13;5110608;28;20419;-22
2021/08/14 07:45:50;;;;;;;8.02;5.47;;;;;;;27.33;42.32;100763.91;5110818;28;20088;-22
2021/08/14 07:48:16;;;;;;;7.10;4.95;;;;;;;27.42;40.86;100767.47;5110296;28;20034;-22
2021/08/14 07:50:41;;;;;;;9.63;5.00;;;;;;;27.46;39.72;100754.78;5110414;28;20096;-22
2021/08/14 07:53:07;;;;;;;8.15;4.88;;;;;;;27.81;40.94;100768.63;5110385;28;20101;-22
2021/08/14 07:55:33;;;;;;;14.75;5.55;;;;;;;28.05;40.45;100766.28;5110477;28;20027;-22
2021/08/14 07:57:58;;;;;;;8.85;4.75;;;;;;;27.95;39.69;100763.84;5110284;28;20060;-22
2021/08/14 08:00:24;;;;;;;8.23;4.93;;;;;;;28.04;39.13;100766.59;5109901;28;20085;-22
2021/08/14 08:02:50;;;;;;;6.00;3.97;;;;;;;27.73;39.43;100761.97;5110197;28;20111;-23
2021/08/14 08:05:16;;;;;;;8.60;4.72;;;;;;;28.15;40.07;100772.59;5110033;28;20055;-22
2021/08/14 08:07:43;;;;;;;8.40;5.68;;;;;;;28.12;39.90;100762.28;5109904;28;20028;-22
2021/08/14 08:10:10;;;;;;;7.22;4.97;;;;;;;28.29;39.77;100756.78;5109874;28;20032;-22
2021/08/14 08:12:36;;;;;;;7.47;4.95;;;;;;;28.02;39.47;100747.72;5109920;28;20045;-22
2021/08/14 08:15:03;;;;;;;7.20;5.35;;;;;;;28.21;39.76;100752.09;5110153;28;20030;-22
2021/08/14 08:17:28;;;;;;;7.38;5.22;;;;;;;28.47;37.89;100754.88;5110103;28;20095;-22
2021/08/14 08:19:54;;;;;;;8.05;4.53;;;;;;;28.63;37.85;100755.22;5110236;28;20982;-22
2021/08/14 08:22:20;;;;;;;10.00;5.45;;;;;;;28.32;38.73;100752.59;5109595;28;20039;-22
2021/08/14 08:24:45;;;;;;;9.18;5.28;;;;;;;28.73;38.09;100738.41;5109831;28;20502;-22
2021/08/14 08:27:10;;;;;;;8.65;5.60;;;;;;;28.79;38.65;100728.88;5109616;28;20046;-22
2021/08/14 08:29:38;;;;;;;8.82;4.80;;;;;;;28.98;36.83;100739.50;5110145;28;20035;-23
2021/08/14 08:32:04;;;;;;;10.32;5.18;;;;;;;29.02;37.17;100745.13;5109687;28;20035;-22
2021/08/14 08:34:30;;;;;;;8.70;5.35;;;;;;;29.11;38.00;100726.72;5109866;28;20050;-22
2021/08/14 08:36:55;;;;;;;8.75;5.50;;;;;;;29.13;37.44;100723.66;5109459;28;20032;-22
2021/08/14 08:39:21;;;;;;;8.07;5.10;;;;;;;29.16;36.38;100718.31;5109556;28;20076;-22
2021/08/14 08:41:46;;;;;;;8.90;5.30;;;;;;;29.17;36.54;100721.84;5109364;28;20031;-22
2021/08/14 08:44:12;;;;;;;11.98;5.55;;;;;;;29.34;37.27;100718.22;5109129;28;20054;-22
2021/08/14 08:46:38;;;;;;;8.82;5.22;;;;;;;29.58;36.38;100712.13;5109413;28;20076;-22
2021/08/14 08:49:04;;;;;;;7.57;5.50;;;;;;;29.49;35.80;100720.44;5109220;28;20051;-22
2021/08/14 08:51:30;;;;;;;7.13;5.13;;;;;;;29.46;35.94;100710.09;5091106;28;20475;-22
2021/08/14 08:53:56;;;;;;;7.70;5.10;;;;;;;29.28;38.21;100716.78;5108621;28;20028;-22
2021/08/14 08:56:21;;;;;;;8.55;5.13;;;;;;;29.75;36.94;100708.50;5108876;28;20028;-22
2021/08/14 08:58:47;;;;;;;8.20;5.20;;;;;;;30.07;34.33;100712.50;5109044;28;20055;-22
2021/08/14 09:01:12;;;;;;;9.45;5.30;;;;;;;30.35;34.26;100715.53;5109231;28;20028;-22
2021/08/14 09:03:38;;;;;;;8.13;5.30;;;;;;;30.61;33.69;100715.31;5108982;28;20036;-22
2021/08/14 09:06:04;;;;;;;8.45;5.13;;;;;;;30.33;34.92;100720.56;5108538;28;20047;-22
2021/08/14 09:08:30;;;;;;;7.65;5.07;;;;;;;29.71;35.12;100696.56;5108793;28;20402;-22
2021/08/14 09:11:11;;;;;;;8.35;5.15;;;;;;;29.95;34.86;100704.16;5108690;28;20042;-22
2021/08/14 09:13:39;;;;;;;13.20;5.40;;;;;;;30.21;33.88;100703.97;5108964;28;20019;-22
2021/08/14 09:16:23;;;;;;;6.85;5.20;;;;;;;29.84;34.76;100690.03;5108598;28;20035;-22
2021/08/14 09:18:59;;;;;;;8.30;5.25;;;;;;;30.34;36.36;100693.84;5108844;28;20524;-22
2021/08/14 09:21:31;;;;;;;8.55;5.15;;;;;;;30.40;34.02;100698.00;5108917;28;20027;-22
2021/08/14 09:23:56;;;;;;;6.93;4.95;;;;;;;30.57;34.15;100697.06;5108914;28;20114;-22
2021/08/14 09:26:22;;;;;;;7.90;4.93;;;;;;;31.43;32.52;100695.25;5090142;28;20160;-22
2021/08/14 09:28:47;;;;;;;8.93;5.28;;;;;;;31.39;31.70;100693.53;5090209;28;20035;-22
2021/08/14 09:31:14;;;;;;;8.23;5.00;;;;;;;31.74;32.36;100690.31;5073507;28;20043;-22
2021/08/14 09:33:39;;;;;;;8.53;5.03;;;;;;;31.77;30.84;100675.81;5108746;28;20034;-22
2021/08/14 09:36:06;;;;;;;12.40;5.90;;;;;;;31.58;31.63;100680.00;5108168;28;20273;-22
2021/08/14 09:38:45;;;;;;;8.63;4.97;;;;;;;31.40;31.91;100687.66;5090288;28;20083;-22
2021/08/14 09:41:12;;;;;;;8.23;5.30;;;;;;;31.48;32.68;100674.94;5108305;28;20073;-22
2021/08/14 09:43:38;;;;;;;7.82;5.32;;;;;;;31.58;32.88;100666.19;5108208;28;20115;-22
2021/08/14 09:46:03;;;;;;;7.50;5.30;;;;;;;31.53;32.17;100677.47;5108102;28;20036;-22
2021/08/14 09:48:31;;;;;;;7.95;5.30;;;;;;;31.07;33.86;100662.97;5108043;28;20035;-22
2021/08/14 09:50:56;;;;;;;11.77;5.75;;;;;;;31.74;31.44;100660.78;5108152;28;20573;-22
2021/08/14 09:53:23;;;;;;;7.32;4.65;;;;;;;32.39;31.94;100657.94;5108350;28;20039;-22
2021/08/14 09:56:11;;;;;;;9.23;5.40;;;;;;;31.87;30.72;100664.31;5108231;28;20510;-22
2021/08/14 09:58:39;;;;;;;7.55;5.28;;;;;;;31.62;30.92;100656.09;5092738;28;20158;-22
2021/08/14 10:01:08;;;;;;;9.60;5.90;;;;;;;31.85;31.24;100661.09;5107945;28;20048;-22
2021/08/14 10:03:34;;;;;;;7.85;5.45;;;;;;;31.39;31.81;100654.97;5108052;28;20028;-22
2021/08/14 10:06:01;;;;;;;8.40;5.53;;;;;;;30.62;31.86;100644.53;5089120;28;20039;-22
2021/08/14 10:08:27;;;;;;;9.93;5.50;;;;;;;31.24;33.30;100650.94;5107610;28;20483;-22
2021/08/14 10:10:53;;;;;;;8.75;5.57;;;;;;;30.98;31.29;100620.97;5089614;28;20034;-22
2021/08/14 10:13:19;;;;;;;7.65;5.30;;;;;;;31.19;31.37;100627.16;5107913;28;20055;-22
2021/08/14 10:15:45;;;;;;;9.13;5.47;;;;;;;31.22;31.89;100620.97;5107906;28;20103;-22
2021/08/14 10:18:10;;;;;;;8.40;5.20;;;;;;;30.52;33.04;100632.00;5107517;28;20502;-22
2021/08/14 10:20:36;;;;;;;7.90;5.15;;;;;;;31.26;32.06;100628.53;5089521;28;20114;-22
2021/08/14 10:23:06;;;;;;;6.97;5.07;;;;;;;31.27;32.21;100630.97;5107834;28;20028;-22
2021/08/14 10:25:33;;;;;;;8.43;5.70;;;;;;;30.72;32.97;100616.56;5089668;28;20090;-22
2021/08/14 10:28:02;;;;;;;8.13;5.37;;;;;;;31.00;32.80;100611.22;5072591;28;20026;-22
2021/08/14 10:30:34;;;;;;;9.57;5.70;;;;;;;31.08;33.03;100615.03;5107940;28;20035;-22
2021/08/14 10:33:00;;;;;;;9.45;5.53;;;;;;;31.02;32.98;100608.13;5107638;28;20491;-22
2021/08/14 10:35:25;;;;;;;8.85;5.38;;;;;;;31.36;32.86;100606.81;5107351;28;20028;-22
2021/08/14 10:37:50;;;;;;;10.68;5.53;;;;;;;31.65;33.13;100596.72;5107735;28;20111;-22
2021/08/14 10:40:17;;;;;;;8.73;5.40;;;;;;;31.93;31.27;100601.44;5107872;28;20064;-22
2021/08/14 10:42:58;;;;;;;8.77;5.40;;;;;;;32.18;30.60;100600.22;5107597;28;20039;-22
2021/08/14 10:45:26;;;;;;;7.35;5.35;;;;;;;32.92;30.61;100604.50;5107597;28;20449;-22
2021/08/14 10:47:52;;;;;;;9.85;5.75;;;;;;;32.92;30.60;100587.91;5107473;28;20028;-22
2021/08/14 10:50:30;;;;;;;8.55;5.72;;;;;;;33.01;28.96;100582.97;5107284;28;20032;-22
2021/08/14 10:53:25;;;;;;;6.95;4.78;;;;;;;33.25;28.77;100586.72;5107163;28;20088;-22
2021/08/14 10:55:52;;;;;;;6.82;5.25;;;;;;;33.07;31.51;100576.03;5085188;28;20039;-22
2021/08/14 10:58:37;;;;;;;8.60;5.55;;;;;;;32.95;29.42;100592.69;5106958;28;20127;-22
2021/08/14 11:01:03;;;;;;;7.97;5.65;;;;;;;33.43;29.08;100585.94;5106961;28;20055;-22
2021/08/14 11:03:36;;;;;;;7.25;5.00;;;;;;;32.61;30.34;100573.75;5107066;28;20383;-22
2021/08/14 11:06:27;;;;;;;7.82;5.30;;;;;;;32.01;30.57;100570.97;5106943;28;20039;-22
2021/08/14 11:09:17;;;;;;;7.18;5.03;;;;;;;32.62;30.68;100566.25;5106862;28;20059;-22
2021/08/14 11:12:03;;;;;;;8.45;5.70;;;;;;;32.20;29.95;100567.56;5107020;28;20038;-23
2021/08/14 11:15:12;;;;;;;11.18;5.45;;;;;;;32.97;29.52;100557.22;5106417;28;20150;-22
2021/08/14 11:17:38;;;;;;;7.38;5.40;;;;;;;32.36;30.04;100553.75;5097719;28;20046;-22
2021/08/14 11:20:04;;;;;;;7.43;5.35;;;;;;;31.57;31.42;100557.09;5111310;28;20031;-22